sensor_id;sensor_type;location;lat;lon;timestamp;pressure;altitude;pressure_sealevel;temperature;humidity
58975;BME280;44751;52.236;5.178;2023-02-13T07:15:36;103557.75;;;6.41;100.00
58975;BME280;44751;52.236;5.178;2023-02-13T07:18:04;103567.38;;;6.45;100.00
58975;BME280;44751;52.236;5.178;2023-02-13T07:20:34;103569.28;;;6.43;100.00
58975;BME280;44751;52.236;5.178;2023-02-13T07:23:06;103574.56;;;6.44;100.00
58975;BME280;44751;52.236;5.178;2023-02-13T07:25:32;103571.47;;;6.52;100.00
58975;BME280;44751;52.236;5.178;2023-02-13T07:28:01;103572.50;;;6.50;100.00
58975;BME280;44751;52.236;5.178;2023-02-13T07:30:29;103568.78;;;6.52;100.00
58975;BME280;44751;52.236;5.178;2023-02-13T07:33:03;103571.28;;;6.55;100.00
58975;BME280;44751;52.236;5.178;2023-02-13T07:35:31;103573.38;;;6.66;100.00
58975;BME280;44751;52.236;5.178;2023-02-13T07:38:02;103576.66;;;6.55;100.00
58975;BME280;44751;52.236;5.178;2023-02-13T07:40:29;103582.53;;;6.62;100.00
58975;BME280;44751;52.236;5.178;2023-02-13T07:43:03;103572.94;;;6.58;100.00
58975;BME280;44751;52.236;5.178;2023-02-13T07:45:29;103582.78;;;6.57;100.00
58975;BME280;44751;52.236;5.178;2023-02-13T07:47:57;103583.78;;;6.72;100.00
58975;BME280;44751;52.236;5.178;2023-02-13T07:50:24;103588.53;;;6.83;100.00
58975;BME280;44751;52.236;5.178;2023-02-13T07:52:59;103586.53;;;6.71;100.00
58975;BME280;44751;52.236;5.178;2023-02-13T07:55:27;103592.44;;;6.78;100.00
58975;BME280;44751;52.236;5.178;2023-02-13T07:57:54;103589.81;;;6.76;100.00
58975;BME280;44751;52.236;5.178;2023-02-13T08:00:21;103592.50;;;6.76;100.00
58975;BME280;44751;52.236;5.178;2023-02-13T08:02:52;103590.88;;;6.74;100.00
58975;BME280;44751;52.236;5.178;2023-02-13T08:05:18;103594.69;;;6.69;100.00
58975;BME280;44751;52.236;5.178;2023-02-13T08:07:45;103600.03;;;6.69;100.00
58975;BME280;44751;52.236;5.178;2023-02-13T08:10:15;103600.72;;;6.73;100.00
58975;BME280;44751;52.236;5.178;2023-02-13T08:12:59;103610.97;;;6.82;100.00
58975;BME280;44751;52.236;5.178;2023-02-13T08:15:26;103616.31;;;6.98;100.00
58975;BME280;44751;52.236;5.178;2023-02-13T08:17:54;103613.63;;;6.98;100.00
58975;BME280;44751;52.236;5.178;2023-02-13T08:20:23;103617.44;;;6.94;100.00
58975;BME280;44751;52.236;5.178;2023-02-13T08:22:50;103617.53;;;6.93;100.00
58975;BME280;44751;52.236;5.178;2023-02-13T08:25:17;103622.72;;;6.96;100.00
58975;BME280;44751;52.236;5.178;2023-02-13T08:27:45;103619.88;;;6.99;100.00
58975;BME280;44751;52.236;5.178;2023-02-13T08:30:14;103610.09;;;7.14;100.00
58975;BME280;44751;52.236;5.178;2023-02-13T08:32:43;103601.34;;;7.10;100.00
58975;BME280;44751;52.236;5.178;2023-02-13T08:35:09;103606.81;;;7.09;100.00
58975;BME280;44751;52.236;5.178;2023-02-13T08:37:36;103599.34;;;7.14;100.00
58975;BME280;44751;52.236;5.178;2023-02-13T08:40:06;103598.03;;;7.21;100.00
58975;BME280;44751;52.236;5.178;2023-02-13T08:42:35;103599.22;;;7.32;100.00
58975;BME280;44751;52.236;5.178;2023-02-13T08:45:06;103604.00;;;7.43;100.00
58975;BME280;44751;52.236;5.178;2023-02-13T08:47:34;103607.09;;;7.51;100.00
58975;BME280;44751;52.236;5.178;2023-02-13T08:50:01;103615.78;;;7.71;100.00
58975;BME280;44751;52.236;5.178;2023-02-13T08:52:27;103609.28;;;7.75;100.00
58975;BME280;44751;52.236;5.178;2023-02-13T08:54:58;103610.28;;;7.72;100.00
58975;BME280;44751;52.236;5.178;2023-02-13T08:57:31;103608.06;;;7.65;100.00
58975;BME280;44751;52.236;5.178;2023-02-13T08:59:59;103611.97;;;7.75;100.00
58975;BME280;44751;52.236;5.178;2023-02-13T09:02:46;103600.91;;;7.80;100.00
58975;BME280;44751;52.236;5.178;2023-02-13T09:05:12;103613.69;;;7.91;100.00
58975;BME280;44751;52.236;5.178;2023-02-13T09:07:43;103611.53;;;7.97;100.00
58975;BME280;44751;52.236;5.178;2023-02-13T09:10:15;103613.16;;;8.14;100.00
58975;BME280;44751;52.236;5.178;2023-02-13T09:12:43;103605.31;;;8.11;100.00
58975;BME280;44751;52.236;5.178;2023-02-13T09:15:09;103604.22;;;7.99;100.00
58975;BME280;44751;52.236;5.178;2023-02-13T09:17:37;103596.94;;;8.01;100.00
58975;BME280;44751;52.236;5.178;2023-02-13T09:20:06;103600.03;;;8.10;100.00
58975;BME280;44751;52.236;5.178;2023-02-13T09:22:36;103598.97;;;8.12;100.00
58975;BME280;44751;52.236;5.178;2023-02-13T09:25:03;103600.47;;;8.31;100.00
58975;BME280;44751;52.236;5.178;2023-02-13T09:27:31;103597.22;;;8.26;100.00
58975;BME280;44751;52.236;5.178;2023-02-13T09:30:07;103600.59;;;8.30;100.00
58975;BME280;44751;52.236;5.178;2023-02-13T09:32:40;103596.16;;;8.29;100.00
58975;BME280;44751;52.236;5.178;2023-02-13T09:35:07;103598.00;;;8.28;100.00
58975;BME280;44751;52.236;5.178;2023-02-13T09:37:34;103596.47;;;8.38;100.00
58975;BME280;44751;52.236;5.178;2023-02-13T09:40:03;103606.38;;;8.38;100.00
58975;BME280;44751;52.236;5.178;2023-02-13T09:42:32;103605.00;;;8.45;100.00
58975;BME280;44751;52.236;5.178;2023-02-13T09:45:03;103608.28;;;8.65;100.00
58975;BME280;44751;52.236;5.178;2023-02-13T09:47:36;103594.84;;;8.65;100.00
58975;BME280;44751;52.236;5.178;2023-02-13T09:50:21;103598.78;;;9.01;100.00
58975;BME280;44751;52.236;5.178;2023-02-13T09:52:50;103601.47;;;9.01;100.00
58975;BME280;44751;52.236;5.178;2023-02-13T16:54:00;103355.47;;;9.28;100.00
58975;BME280;44751;52.236;5.178;2023-02-13T16:56:57;103363.22;;;9.07;100.00
58975;BME280;44751;52.236;5.178;2023-02-13T17:07:42;103375.47;;;8.72;100.00
58975;BME280;44751;52.236;5.178;2023-02-13T17:10:23;103377.06;;;8.62;100.00
58975;BME280;44751;52.236;5.178;2023-02-13T17:15:35;103376.22;;;8.47;100.00
58975;BME280;44751;52.236;5.178;2023-02-13T17:18:05;103386.03;;;8.48;100.00
58975;BME280;44751;52.236;5.178;2023-02-13T17:20:36;103385.63;;;8.54;100.00
58975;BME280;44751;52.236;5.178;2023-02-13T17:23:27;103372.09;;;8.41;100.00
58975;BME280;44751;52.236;5.178;2023-02-13T17:25:55;103371.84;;;8.31;100.00
58975;BME280;44751;52.236;5.178;2023-02-13T17:28:25;103380.72;;;8.19;100.00
58975;BME280;44751;52.236;5.178;2023-02-13T17:30:55;103380.38;;;8.10;100.00
58975;BME280;44751;52.236;5.178;2023-02-13T17:33:31;103379.63;;;8.08;100.00
58975;BME280;44751;52.236;5.178;2023-02-13T17:36:02;103389.03;;;8.16;100.00
58975;BME280;44751;52.236;5.178;2023-02-13T17:38:29;103382.56;;;8.18;100.00
58975;BME280;44751;52.236;5.178;2023-02-13T17:40:56;103379.53;;;8.10;100.00
58975;BME280;44751;52.236;5.178;2023-02-13T17:43:22;103375.69;;;7.99;100.00
58975;BME280;44751;52.236;5.178;2023-02-13T17:45:53;103372.34;;;7.96;100.00
58975;BME280;44751;52.236;5.178;2023-02-13T17:48:20;103366.19;;;7.94;100.00
58975;BME280;44751;52.236;5.178;2023-02-13T17:50:49;103377.72;;;7.96;100.00
58975;BME280;44751;52.236;5.178;2023-02-13T17:53:27;103384.84;;;7.82;100.00
58975;BME280;44751;52.236;5.178;2023-02-13T17:55:56;103370.56;;;7.82;100.00
58975;BME280;44751;52.236;5.178;2023-02-13T17:58:23;103379.28;;;7.85;100.00
58975;BME280;44751;52.236;5.178;2023-02-13T18:00:49;103371.50;;;7.81;100.00
58975;BME280;44751;52.236;5.178;2023-02-13T18:03:16;103372.97;;;7.72;100.00
58975;BME280;44751;52.236;5.178;2023-02-13T18:05:46;103364.59;;;7.77;100.00
58975;BME280;44751;52.236;5.178;2023-02-13T18:08:16;103367.09;;;7.80;100.00
58975;BME280;44751;52.236;5.178;2023-02-13T18:10:44;103373.53;;;7.77;100.00
58975;BME280;44751;52.236;5.178;2023-02-13T18:13:11;103356.75;;;7.73;100.00
58975;BME280;44751;52.236;5.178;2023-02-13T18:15:41;103357.59;;;7.74;100.00
58975;BME280;44751;52.236;5.178;2023-02-13T18:18:13;103358.56;;;7.73;100.00
58975;BME280;44751;52.236;5.178;2023-02-13T18:20:42;103363.75;;;7.61;100.00
58975;BME280;44751;52.236;5.178;2023-02-13T18:23:09;103365.00;;;7.56;100.00
58975;BME280;44751;52.236;5.178;2023-02-13T18:25:36;103366.34;;;7.48;100.00
58975;BME280;44751;52.236;5.178;2023-02-13T18:28:05;103376.81;;;7.39;100.00
58975;BME280;44751;52.236;5.178;2023-02-13T18:30:34;103370.94;;;7.32;100.00
58975;BME280;44751;52.236;5.178;2023-02-13T18:33:01;103379.59;;;7.22;100.00
58975;BME280;44751;52.236;5.178;2023-02-13T18:35:38;103382.84;;;7.13;100.00
58975;BME280;44751;52.236;5.178;2023-02-13T18:38:10;103373.50;;;7.04;100.00
58975;BME280;44751;52.236;5.178;2023-02-13T18:40:37;103371.47;;;6.93;100.00
58975;BME280;44751;52.236;5.178;2023-02-13T18:43:04;103382.50;;;6.89;100.00
58975;BME280;44751;52.236;5.178;2023-02-13T18:45:30;103379.22;;;6.83;100.00
58975;BME280;44751;52.236;5.178;2023-02-13T18:48:00;103368.25;;;6.72;100.00
58975;BME280;44751;52.236;5.178;2023-02-13T18:50:27;103367.44;;;6.55;100.00
58975;BME280;44751;52.236;5.178;2023-02-13T18:52:56;103365.31;;;6.46;100.00
58975;BME280;44751;52.236;5.178;2023-02-13T18:55:25;103363.94;;;6.39;100.00
58975;BME280;44751;52.236;5.178;2023-02-13T18:57:52;103367.91;;;6.31;100.00
58975;BME280;44751;52.236;5.178;2023-02-13T19:00:23;103377.97;;;6.28;100.00
58975;BME280;44751;52.236;5.178;2023-02-13T19:02:51;103378.22;;;6.23;100.00
58975;BME280;44751;52.236;5.178;2023-02-13T19:05:18;103379.50;;;6.16;100.00
58975;BME280;44751;52.236;5.178;2023-02-13T19:07:47;103378.41;;;6.04;100.00
58975;BME280;44751;52.236;5.178;2023-02-13T19:10:13;103381.22;;;6.01;100.00
58975;BME280;44751;52.236;5.178;2023-02-13T19:12:40;103369.34;;;5.89;100.00
58975;BME280;44751;52.236;5.178;2023-02-13T19:15:08;103383.78;;;5.86;100.00
58975;BME280;44751;52.236;5.178;2023-02-13T19:17:36;103374.47;;;5.77;100.00
58975;BME280;44751;52.236;5.178;2023-02-13T19:20:03;103378.16;;;5.75;100.00
58975;BME280;44751;52.236;5.178;2023-02-13T19:22:33;103383.94;;;5.67;100.00
58975;BME280;44751;52.236;5.178;2023-02-13T19:25:05;103373.81;;;5.56;100.00
58975;BME280;44751;52.236;5.178;2023-02-13T19:27:35;103378.44;;;5.70;100.00
58975;BME280;44751;52.236;5.178;2023-02-13T19:30:05;103379.03;;;5.59;100.00
58975;BME280;44751;52.236;5.178;2023-02-13T19:32:41;103383.06;;;5.50;100.00
58975;BME280;44751;52.236;5.178;2023-02-13T19:35:10;103375.69;;;5.38;100.00
58975;BME280;44751;52.236;5.178;2023-02-13T19:37:54;103383.44;;;5.42;100.00
58975;BME280;44751;52.236;5.178;2023-02-13T19:40:20;103381.19;;;5.35;100.00
58975;BME280;44751;52.236;5.178;2023-02-13T19:43:05;103362.16;;;5.23;100.00
58975;BME280;44751;52.236;5.178;2023-02-13T19:45:48;103376.09;;;5.12;100.00
58975;BME280;44751;52.236;5.178;2023-02-13T19:48:30;103371.72;;;5.11;100.00
58975;BME280;44751;52.236;5.178;2023-02-13T19:51:35;103371.78;;;5.10;100.00
58975;BME280;44751;52.236;5.178;2023-02-13T19:54:16;103382.63;;;5.07;100.00
58975;BME280;44751;52.236;5.178;2023-02-13T19:56:43;103379.66;;;4.95;100.00
58975;BME280;44751;52.236;5.178;2023-02-13T19:59:10;103376.84;;;4.81;100.00
58975;BME280;44751;52.236;5.178;2023-02-13T20:01:40;103380.50;;;4.78;100.00
58975;BME280;44751;52.236;5.178;2023-02-13T20:04:10;103384.28;;;4.74;100.00
58975;BME280;44751;52.236;5.178;2023-02-13T20:06:39;103382.97;;;4.65;100.00
58975;BME280;44751;52.236;5.178;2023-02-13T20:09:30;103386.66;;;4.62;100.00
58975;BME280;44751;52.236;5.178;2023-02-13T20:12:07;103391.75;;;4.49;100.00
58975;BME280;44751;52.236;5.178;2023-02-13T20:14:36;103386.84;;;4.40;100.00
58975;BME280;44751;52.236;5.178;2023-02-13T20:17:10;103390.38;;;4.41;100.00
58975;BME280;44751;52.236;5.178;2023-02-13T20:19:37;103387.22;;;4.32;100.00
58975;BME280;44751;52.236;5.178;2023-02-13T20:36:20;103393.84;;;4.23;100.00
58975;BME280;44751;52.236;5.178;2023-02-13T20:38:53;103384.78;;;4.08;100.00
58975;BME280;44751;52.236;5.178;2023-02-13T20:41:22;103379.75;;;4.02;100.00
58975;BME280;44751;52.236;5.178;2023-02-13T20:43:49;103379.16;;;3.95;100.00
58975;BME280;44751;52.236;5.178;2023-02-13T20:46:20;103393.25;;;3.99;100.00
58975;BME280;44751;52.236;5.178;2023-02-13T20:48:47;103399.59;;;3.96;100.00
58975;BME280;44751;52.236;5.178;2023-02-13T20:51:17;103384.50;;;3.95;100.00
58975;BME280;44751;52.236;5.178;2023-02-13T20:53:44;103391.34;;;4.01;100.00
58975;BME280;44751;52.236;5.178;2023-02-13T20:58:42;103396.25;;;3.91;100.00
58975;BME280;44751;52.236;5.178;2023-02-13T21:01:11;103397.22;;;3.90;100.00
58975;BME280;44751;52.236;5.178;2023-02-13T21:03:39;103402.69;;;3.87;100.00
58975;BME280;44751;52.236;5.178;2023-02-13T21:06:09;103387.09;;;3.78;100.00
58975;BME280;44751;52.236;5.178;2023-02-13T21:08:40;103396.84;;;3.79;100.00
58975;BME280;44751;52.236;5.178;2023-02-13T21:11:07;103409.16;;;3.81;100.00
58975;BME280;44751;52.236;5.178;2023-02-13T21:13:34;103399.66;;;3.76;100.00
58975;BME280;44751;52.236;5.178;2023-02-13T21:16:07;103388.69;;;3.63;100.00
58975;BME280;44751;52.236;5.178;2023-02-13T21:18:35;103395.59;;;3.67;100.00
58975;BME280;44751;52.236;5.178;2023-02-13T21:21:06;103398.34;;;3.65;100.00
58975;BME280;44751;52.236;5.178;2023-02-13T21:23:33;103398.47;;;3.62;100.00
58975;BME280;44751;52.236;5.178;2023-02-13T21:26:08;103401.22;;;3.60;100.00
58975;BME280;44751;52.236;5.178;2023-02-13T21:28:36;103405.63;;;3.61;100.00
58975;BME280;44751;52.236;5.178;2023-02-13T21:31:08;103402.97;;;3.61;100.00
58975;BME280;44751;52.236;5.178;2023-02-13T21:33:35;103400.91;;;3.47;100.00
58975;BME280;44751;52.236;5.178;2023-02-13T21:36:07;103407.16;;;3.46;100.00
58975;BME280;44751;52.236;5.178;2023-02-13T21:38:36;103397.72;;;3.39;100.00
58975;BME280;44751;52.236;5.178;2023-02-13T21:41:16;103403.91;;;3.40;100.00
58975;BME280;44751;52.236;5.178;2023-02-13T21:43:46;103399.72;;;3.34;100.00
58975;BME280;44751;52.236;5.178;2023-02-13T21:48:40;103402.97;;;3.41;100.00
58975;BME280;44751;52.236;5.178;2023-02-13T21:51:13;103403.13;;;3.38;100.00
58975;BME280;44751;52.236;5.178;2023-02-13T21:53:42;103396.53;;;3.26;100.00
58975;BME280;44751;52.236;5.178;2023-02-13T21:56:14;103395.88;;;3.20;100.00
58975;BME280;44751;52.236;5.178;2023-02-13T21:58:42;103393.97;;;3.22;100.00
58975;BME280;44751;52.236;5.178;2023-02-13T22:01:29;103393.19;;;3.20;100.00
58975;BME280;44751;52.236;5.178;2023-02-13T22:04:05;103382.13;;;3.09;100.00
58975;BME280;44751;52.236;5.178;2023-02-13T22:06:41;103388.19;;;3.13;100.00
58975;BME280;44751;52.236;5.178;2023-02-13T22:09:14;103392.31;;;3.20;100.00
58975;BME280;44751;52.236;5.178;2023-02-13T22:11:41;103381.06;;;3.13;100.00
58975;BME280;44751;52.236;5.178;2023-02-13T22:14:12;103398.66;;;3.17;100.00
58975;BME280;44751;52.236;5.178;2023-02-13T22:16:53;103378.69;;;3.07;100.00
58975;BME280;44751;52.236;5.178;2023-02-13T22:19:20;103376.38;;;2.97;100.00
58975;BME280;44751;52.236;5.178;2023-02-13T22:21:46;103372.59;;;3.03;100.00
58975;BME280;44751;52.236;5.178;2023-02-13T22:24:13;103380.13;;;2.93;100.00
58975;BME280;44751;52.236;5.178;2023-02-13T22:26:41;103380.59;;;3.03;100.00
58975;BME280;44751;52.236;5.178;2023-02-13T22:29:11;103374.66;;;2.96;100.00
58975;BME280;44751;52.236;5.178;2023-02-13T22:31:38;103368.50;;;2.94;100.00
58975;BME280;44751;52.236;5.178;2023-02-13T22:34:04;103364.25;;;2.90;100.00
58975;BME280;44751;52.236;5.178;2023-02-13T22:36:33;103362.59;;;2.88;100.00
58975;BME280;44751;52.236;5.178;2023-02-13T22:38:59;103358.31;;;2.83;100.00
58975;BME280;44751;52.236;5.178;2023-02-13T22:41:26;103369.31;;;2.96;100.00
58975;BME280;44751;52.236;5.178;2023-02-13T22:43:53;103365.84;;;2.94;100.00
58975;BME280;44751;52.236;5.178;2023-02-13T22:46:22;103362.63;;;2.86;100.00
58975;BME280;44751;52.236;5.178;2023-02-13T22:48:50;103373.84;;;2.94;100.00
58975;BME280;44751;52.236;5.178;2023-02-13T22:51:19;103360.91;;;2.85;100.00
58975;BME280;44751;52.236;5.178;2023-02-13T22:53:47;103361.56;;;2.90;100.00
58975;BME280;44751;52.236;5.178;2023-02-13T22:56:14;103361.03;;;2.82;100.00
58975;BME280;44751;52.236;5.178;2023-02-13T22:58:41;103360.25;;;2.80;100.00
58975;BME280;44751;52.236;5.178;2023-02-13T23:01:15;103357.84;;;2.74;100.00
58975;BME280;44751;52.236;5.178;2023-02-13T23:03:42;103346.31;;;2.73;100.00
58975;BME280;44751;52.236;5.178;2023-02-13T23:06:11;103352.44;;;2.75;100.00
58975;BME280;44751;52.236;5.178;2023-02-13T23:08:41;103359.72;;;2.71;100.00
58975;BME280;44751;52.236;5.178;2023-02-13T23:11:12;103358.53;;;2.79;100.00
58975;BME280;44751;52.236;5.178;2023-02-13T23:14:01;103355.22;;;2.72;100.00
58975;BME280;44751;52.236;5.178;2023-02-13T23:16:27;103348.56;;;2.62;100.00
58975;BME280;44751;52.236;5.178;2023-02-13T23:19:17;103350.19;;;2.66;100.00
58975;BME280;44751;52.236;5.178;2023-02-13T23:21:43;103333.53;;;2.61;100.00
58975;BME280;44751;52.236;5.178;2023-02-13T23:24:09;103345.72;;;2.66;100.00
58975;BME280;44751;52.236;5.178;2023-02-13T23:26:36;103348.50;;;2.63;100.00
58975;BME280;44751;52.236;5.178;2023-02-13T23:29:05;103330.75;;;2.62;100.00
58975;BME280;44751;52.236;5.178;2023-02-13T23:31:32;103342.47;;;2.58;100.00
58975;BME280;44751;52.236;5.178;2023-02-13T23:34:04;103344.88;;;2.43;100.00
58975;BME280;44751;52.236;5.178;2023-02-13T23:36:30;103340.50;;;2.42;100.00
58975;BME280;44751;52.236;5.178;2023-02-13T23:38:57;103339.66;;;2.40;100.00
58975;BME280;44751;52.236;5.178;2023-02-13T23:41:23;103344.31;;;2.35;100.00
58975;BME280;44751;52.236;5.178;2023-02-13T23:43:50;103350.28;;;2.42;100.00
58975;BME280;44751;52.236;5.178;2023-02-13T23:46:20;103347.16;;;2.30;100.00
58975;BME280;44751;52.236;5.178;2023-02-13T23:48:47;103346.22;;;2.31;100.00
58975;BME280;44751;52.236;5.178;2023-02-13T23:51:13;103338.44;;;2.27;100.00
58975;BME280;44751;52.236;5.178;2023-02-13T23:53:40;103352.94;;;2.19;100.00
58975;BME280;44751;52.236;5.178;2023-02-13T23:56:06;103350.78;;;2.29;100.00
58975;BME280;44751;52.236;5.178;2023-02-13T23:58:35;103341.91;;;2.29;100.00
